createdAt,value
2022-08-25T00:03:09.511Z,18.88
2022-08-25T00:18:19.870Z,18.75
2022-08-25T00:33:26.494Z,18.63
2022-08-25T00:48:32.075Z,18.31
2022-08-25T01:03:37.863Z,18.38
2022-08-25T01:18:49.479Z,18.06
2022-08-25T01:33:55.226Z,18.19
2022-08-25T01:49:06.214Z,17.94
2022-08-25T02:04:12.593Z,17.75
2022-08-25T02:19:19.419Z,17.69
2022-08-25T02:34:25.528Z,17.69
2022-08-25T02:49:32.399Z,17.63
2022-08-25T03:04:38.117Z,17.19
2022-08-25T03:19:43.910Z,17.19
2022-08-25T03:34:49.557Z,17.13
2022-08-25T03:49:55.113Z,17.00
2022-08-25T04:05:01.231Z,17.00
2022-08-25T04:20:08.452Z,16.94
2022-08-25T04:35:14.600Z,16.81
2022-08-25T04:50:20.537Z,16.75
2022-08-25T05:05:26.076Z,16.88
2022-08-25T05:20:32.074Z,17.19
2022-08-25T05:35:38.097Z,17.31
2022-08-25T05:50:43.734Z,17.69
2022-08-25T06:05:49.657Z,18.19
2022-08-25T06:20:55.683Z,18.50
2022-08-25T06:36:01.450Z,18.81
2022-08-25T06:51:14.021Z,19.19
2022-08-25T07:06:20.603Z,19.56
2022-08-25T07:21:31.230Z,19.31
2022-08-25T07:36:39.065Z,19.31
2022-08-25T07:52:03.599Z,19.75
2022-08-25T08:07:12.377Z,20.38
2022-08-25T08:22:18.166Z,20.81
2022-08-25T08:37:24.084Z,21.06
2022-08-25T08:52:40.464Z,21.38
2022-08-25T09:07:54.832Z,21.81
2022-08-25T09:23:13.676Z,23.00
2022-08-25T09:38:19.889Z,23.44
2022-08-25T09:53:26.334Z,23.69
2022-08-25T10:08:37.481Z,23.69
2022-08-25T10:23:49.743Z,23.81
2022-08-25T10:39:01.415Z,23.63
2022-08-25T10:54:16.040Z,23.25
2022-08-25T11:09:26.004Z,23.19
2022-08-25T11:24:47.103Z,23.25
2022-08-25T11:40:20.407Z,23.31
2022-08-25T11:55:48.806Z,23.50
2022-08-25T12:11:00.489Z,23.63
2022-08-25T12:26:11.174Z,23.94
2022-08-25T12:41:22.548Z,23.94
2022-08-25T12:56:37.500Z,24.19
2022-08-25T13:11:52.976Z,24.44
2022-08-25T13:27:04.497Z,24.19
2022-08-25T13:42:17.124Z,24.38
2022-08-25T13:57:30.241Z,24.31
2022-08-25T14:12:40.204Z,24.44
2022-08-25T14:28:13.666Z,24.00
2022-08-25T14:43:23.634Z,24.25
2022-08-25T14:58:34.274Z,23.56
2022-08-25T15:13:40.631Z,23.38
2022-08-25T15:28:50.525Z,23.19
2022-08-25T15:43:56.742Z,23.00
2022-08-25T15:59:08.701Z,23.00
2022-08-25T16:14:15.434Z,22.88
2022-08-25T16:29:21.811Z,22.75
2022-08-25T16:44:28.250Z,22.56
2022-08-25T16:59:34.024Z,22.44
2022-08-25T17:14:40.069Z,22.31
2022-08-25T17:29:49.007Z,22.19
2022-08-25T17:44:54.843Z,22.06
2022-08-25T18:00:00.603Z,21.88
2022-08-25T18:15:08.282Z,21.75
2022-08-25T18:30:15.496Z,21.56
2022-08-25T18:45:22.911Z,21.38
2022-08-25T19:00:31.982Z,21.31
2022-08-25T19:15:38.733Z,21.13
2022-08-25T19:30:49.932Z,21.00
2022-08-25T19:45:56.677Z,20.94
2022-08-25T20:01:02.579Z,20.81
2022-08-25T20:16:09.777Z,20.69
2022-08-25T20:31:15.682Z,20.56
2022-08-25T20:46:21.689Z,20.44
2022-08-25T21:01:38.061Z,20.38
2022-08-25T21:16:47.035Z,20.19
2022-08-25T21:31:53.152Z,20.06
2022-08-25T21:47:01.529Z,19.88
2022-08-25T22:02:09.619Z,19.81
2022-08-25T22:17:16.987Z,19.69
2022-08-25T22:32:27.177Z,19.63
2022-08-25T22:47:32.994Z,19.63
2022-08-25T23:02:39.002Z,19.56
2022-08-25T23:17:44.815Z,19.44
2022-08-25T23:32:50.735Z,19.44
2022-08-25T23:47:56.548Z,19.38
